sensor_id;sensor_type;location;lat;lon;timestamp;pressure;altitude;pressure_sealevel;temperature;humidity
68859;BME280;55864;49.238;8.092;2023-02-19T00:01:34;100005.72;;;9.21;85.34
68859;BME280;55864;49.238;8.092;2023-02-19T00:03:34;100000.72;;;9.18;85.54
68859;BME280;55864;49.238;8.092;2023-02-19T00:05:35;100005.94;;;9.18;85.76
68859;BME280;55864;49.238;8.092;2023-02-19T00:07:37;99994.78;;;9.16;85.57
68859;BME280;55864;49.238;8.092;2023-02-19T00:09:38;99995.84;;;9.13;86.89
68859;BME280;55864;49.238;8.092;2023-02-19T00:11:39;99990.22;;;9.07;88.29
68859;BME280;55864;49.238;8.092;2023-02-19T00:13:41;99981.66;;;9.05;88.33
68859;BME280;55864;49.238;8.092;2023-02-19T00:15:41;99989.78;;;9.02;88.12
68859;BME280;55864;49.238;8.092;2023-02-19T00:17:42;99989.06;;;9.00;88.65
68859;BME280;55864;49.238;8.092;2023-02-19T00:19:42;99980.47;;;8.98;88.84
68859;BME280;55864;49.238;8.092;2023-02-19T00:21:43;99986.78;;;8.95;89.14
68859;BME280;55864;49.238;8.092;2023-02-19T00:23:48;99982.50;;;8.94;89.22
68859;BME280;55864;49.238;8.092;2023-02-19T00:25:49;99975.50;;;8.95;89.10
68859;BME280;55864;49.238;8.092;2023-02-19T00:27:49;99969.28;;;8.96;89.54
68859;BME280;55864;49.238;8.092;2023-02-19T00:29:52;99987.50;;;8.97;89.57
68859;BME280;55864;49.238;8.092;2023-02-19T00:31:52;100004.78;;;9.00;89.33
68859;BME280;55864;49.238;8.092;2023-02-19T00:33:55;100004.66;;;9.01;88.75
68859;BME280;55864;49.238;8.092;2023-02-19T00:35:58;100001.91;;;9.03;88.67
68859;BME280;55864;49.238;8.092;2023-02-19T00:37:59;100002.03;;;9.01;88.97
68859;BME280;55864;49.238;8.092;2023-02-19T00:40:01;100007.16;;;9.03;88.88
68859;BME280;55864;49.238;8.092;2023-02-19T00:42:01;100001.91;;;9.03;88.88
68859;BME280;55864;49.238;8.092;2023-02-19T00:44:04;100010.72;;;9.02;88.99
68859;BME280;55864;49.238;8.092;2023-02-19T00:46:05;100018.72;;;9.00;88.53
68859;BME280;55864;49.238;8.092;2023-02-19T00:48:06;100007.03;;;8.93;89.41
68859;BME280;55864;49.238;8.092;2023-02-19T00:50:06;100000.59;;;8.97;89.11
68859;BME280;55864;49.238;8.092;2023-02-19T00:52:07;100009.06;;;9.01;89.42
68859;BME280;55864;49.238;8.092;2023-02-19T00:54:08;100005.13;;;8.95;90.15
68859;BME280;55864;49.238;8.092;2023-02-19T00:56:11;99985.25;;;8.93;90.39
68859;BME280;55864;49.238;8.092;2023-02-19T00:58:12;99990.50;;;8.93;90.37
68859;BME280;55864;49.238;8.092;2023-02-19T01:00:13;100000.97;;;8.93;90.86
68859;BME280;55864;49.238;8.092;2023-02-19T01:02:13;100004.53;;;8.92;91.20
68859;BME280;55864;49.238;8.092;2023-02-19T01:04:14;100003.72;;;8.91;91.49
68859;BME280;55864;49.238;8.092;2023-02-19T01:06:17;99999.28;;;8.92;90.85
68859;BME280;55864;49.238;8.092;2023-02-19T01:08:18;100008.09;;;8.91;91.41
68859;BME280;55864;49.238;8.092;2023-02-19T01:10:19;100007.41;;;8.89;91.89
68859;BME280;55864;49.238;8.092;2023-02-19T01:12:20;99995.94;;;8.90;91.80
68859;BME280;55864;49.238;8.092;2023-02-19T01:14:21;100008.22;;;8.89;91.53
68859;BME280;55864;49.238;8.092;2023-02-19T01:16:22;99999.53;;;8.89;92.57
68859;BME280;55864;49.238;8.092;2023-02-19T01:18:22;99992.59;;;8.88;92.13
68859;BME280;55864;49.238;8.092;2023-02-19T01:20:24;99987.63;;;8.85;92.87
68859;BME280;55864;49.238;8.092;2023-02-19T01:22:24;100008.31;;;8.88;92.30
68859;BME280;55864;49.238;8.092;2023-02-19T01:24:25;100019.66;;;8.88;92.79
68859;BME280;55864;49.238;8.092;2023-02-19T01:26:28;100017.88;;;8.89;92.66
68859;BME280;55864;49.238;8.092;2023-02-19T01:28:31;100022.41;;;8.87;92.40
68859;BME280;55864;49.238;8.092;2023-02-19T01:30:33;100008.31;;;8.88;92.51
68859;BME280;55864;49.238;8.092;2023-02-19T01:32:33;100002.38;;;8.86;92.40
68859;BME280;55864;49.238;8.092;2023-02-19T01:34:34;100003.09;;;8.88;92.61
68859;BME280;55864;49.238;8.092;2023-02-19T01:36:35;99989.91;;;8.89;92.20
68859;BME280;55864;49.238;8.092;2023-02-19T01:38:36;99973.56;;;8.86;92.78
68859;BME280;55864;49.238;8.092;2023-02-19T01:40:37;99971.06;;;8.84;92.88
68859;BME280;55864;49.238;8.092;2023-02-19T01:42:41;99968.69;;;8.81;93.54
68859;BME280;55864;49.238;8.092;2023-02-19T01:47:23;99982.00;;;8.78;93.25
68859;BME280;55864;49.238;8.092;2023-02-19T01:49:27;99976.69;;;8.80;93.17
68859;BME280;55864;49.238;8.092;2023-02-19T01:51:29;99975.97;;;8.78;93.67
68859;BME280;55864;49.238;8.092;2023-02-19T01:53:33;99983.69;;;8.79;93.14
68859;BME280;55864;49.238;8.092;2023-02-19T01:55:36;99990.59;;;8.80;93.44
68859;BME280;55864;49.238;8.092;2023-02-19T01:57:40;99984.28;;;8.83;93.09
68859;BME280;55864;49.238;8.092;2023-02-19T01:59:42;99981.78;;;8.81;92.92
68859;BME280;55864;49.238;8.092;2023-02-19T02:01:43;99988.69;;;8.82;93.10
68859;BME280;55864;49.238;8.092;2023-02-19T02:03:46;99989.53;;;8.83;93.10
68859;BME280;55864;49.238;8.092;2023-02-19T02:05:54;99984.28;;;8.83;92.48
68859;BME280;55864;49.238;8.092;2023-02-19T02:07:55;99985.13;;;8.83;92.94
68859;BME280;55864;49.238;8.092;2023-02-19T02:09:56;99987.63;;;8.85;93.45
68859;BME280;55864;49.238;8.092;2023-02-19T02:11:57;99979.75;;;8.85;92.67
68859;BME280;55864;49.238;8.092;2023-02-19T02:13:59;99973.69;;;8.84;92.73
68859;BME280;55864;49.238;8.092;2023-02-19T02:16:11;99972.75;;;8.85;93.25
68859;BME280;55864;49.238;8.092;2023-02-19T02:18:25;99964.75;;;8.87;92.45
68859;BME280;55864;49.238;8.092;2023-02-19T02:20:50;99957.63;;;8.89;92.86
68859;BME280;55864;49.238;8.092;2023-02-19T02:23:04;99962.84;;;8.89;92.44
68859;BME280;55864;49.238;8.092;2023-02-19T02:25:29;99964.50;;;8.90;92.81
68859;BME280;55864;49.238;8.092;2023-02-19T02:27:40;99959.53;;;8.87;92.47
68859;BME280;55864;49.238;8.092;2023-02-19T02:29:53;99962.16;;;8.87;93.35
68859;BME280;55864;49.238;8.092;2023-02-19T02:32:08;99957.03;;;8.85;93.16
68859;BME280;55864;49.238;8.092;2023-02-19T02:34:14;99958.09;;;8.83;93.46
68859;BME280;55864;49.238;8.092;2023-02-19T02:36:19;99948.47;;;8.83;93.45
68859;BME280;55864;49.238;8.092;2023-02-19T02:38:25;99949.50;;;8.81;93.37
68859;BME280;55864;49.238;8.092;2023-02-19T02:40:28;99945.97;;;8.82;93.34
68859;BME280;55864;49.238;8.092;2023-02-19T02:42:29;99945.97;;;8.82;93.66
68859;BME280;55864;49.238;8.092;2023-02-19T02:44:36;99935.47;;;8.82;93.05
68859;BME280;55864;49.238;8.092;2023-02-19T02:46:40;99931.31;;;8.79;93.31
68859;BME280;55864;49.238;8.092;2023-02-19T02:48:45;99929.63;;;8.78;93.18
68859;BME280;55864;49.238;8.092;2023-02-19T02:50:51;99926.06;;;8.79;92.55
68859;BME280;55864;49.238;8.092;2023-02-19T02:52:57;99927.84;;;8.79;93.20
68859;BME280;55864;49.238;8.092;2023-02-19T02:54:58;99922.47;;;8.80;92.79
68859;BME280;55864;49.238;8.092;2023-02-19T02:56:59;99925.81;;;8.82;92.51
68859;BME280;55864;49.238;8.092;2023-02-19T02:59:06;99922.25;;;8.83;93.14
68859;BME280;55864;49.238;8.092;2023-02-19T03:01:09;99921.41;;;8.83;92.49
68859;BME280;55864;49.238;8.092;2023-02-19T03:03:13;99921.41;;;8.83;92.32
68859;BME280;55864;49.238;8.092;2023-02-19T03:05:19;99919.06;;;8.80;92.34
68859;BME280;55864;49.238;8.092;2023-02-19T03:07:21;99922.47;;;8.80;92.31
68859;BME280;55864;49.238;8.092;2023-02-19T03:09:25;99928.56;;;8.81;92.34
68859;BME280;55864;49.238;8.092;2023-02-19T03:11:29;99910.47;;;8.78;92.50
68859;BME280;55864;49.238;8.092;2023-02-19T03:13:34;99921.88;;;8.77;92.04
68859;BME280;55864;49.238;8.092;2023-02-19T03:15:40;99922.72;;;8.77;92.25
68859;BME280;55864;49.238;8.092;2023-02-19T03:17:44;99919.97;;;8.79;91.94
68859;BME280;55864;49.238;8.092;2023-02-19T03:19:50;99927.13;;;8.77;92.79
68859;BME280;55864;49.238;8.092;2023-02-19T03:21:55;99915.84;;;8.76;92.59
68859;BME280;55864;49.238;8.092;2023-02-19T03:23:56;99918.34;;;8.78;92.66
68859;BME280;55864;49.238;8.092;2023-02-19T03:25:57;99921.66;;;8.80;92.42
68859;BME280;55864;49.238;8.092;2023-02-19T03:28:11;99923.69;;;8.76;92.54
68859;BME280;55864;49.238;8.092;2023-02-19T03:30:18;99926.91;;;8.80;92.60
68859;BME280;55864;49.238;8.092;2023-02-19T03:32:23;99932.16;;;8.80;91.77
68859;BME280;55864;49.238;8.092;2023-02-19T03:34:27;99915.59;;;8.79;91.65
68859;BME280;55864;49.238;8.092;2023-02-19T03:36:34;99914.75;;;8.79;92.30
68859;BME280;55864;49.238;8.092;2023-02-19T03:38:39;99915.47;;;8.81;92.36
68859;BME280;55864;49.238;8.092;2023-02-19T03:40:47;99912.97;;;8.79;92.23
68859;BME280;55864;49.238;8.092;2023-02-19T03:42:57;99925.47;;;8.76;91.65
68859;BME280;55864;49.238;8.092;2023-02-19T03:45:13;99927.97;;;8.77;91.77
68859;BME280;55864;49.238;8.092;2023-02-19T03:47:16;99937.47;;;8.78;92.02
68859;BME280;55864;49.238;8.092;2023-02-19T03:49:23;99930.47;;;8.79;92.27
68859;BME280;55864;49.238;8.092;2023-02-19T03:51:30;99935.69;;;8.79;92.09
68859;BME280;55864;49.238;8.092;2023-02-19T03:53:38;99927.84;;;8.79;92.63
68859;BME280;55864;49.238;8.092;2023-02-19T03:55:45;99930.25;;;8.82;92.23
68859;BME280;55864;49.238;8.092;2023-02-19T03:57:52;99921.41;;;8.83;92.69
68859;BME280;55864;49.238;8.092;2023-02-19T04:00:00;99912.63;;;8.84;91.94
68859;BME280;55864;49.238;8.092;2023-02-19T04:02:17;99930.47;;;8.79;91.40
68859;BME280;55864;49.238;8.092;2023-02-19T04:04:22;99935.56;;;8.80;91.39
68859;BME280;55864;49.238;8.092;2023-02-19T04:06:26;99940.59;;;8.83;91.87
68859;BME280;55864;49.238;8.092;2023-02-19T04:08:28;99933.66;;;8.82;90.77
68859;BME280;55864;49.238;8.092;2023-02-19T04:10:38;99937.25;;;8.81;91.48
68859;BME280;55864;49.238;8.092;2023-02-19T04:12:43;99955.47;;;8.83;91.76
68859;BME280;55864;49.238;8.092;2023-02-19T04:14:48;99948.47;;;8.83;92.35
68859;BME280;55864;49.238;8.092;2023-02-19T04:16:54;99947.34;;;8.86;92.56
68859;BME280;55864;49.238;8.092;2023-02-19T04:19:01;99951.91;;;8.84;92.69
68859;BME280;55864;49.238;8.092;2023-02-19T04:21:04;99949.38;;;8.82;92.60
68859;BME280;55864;49.238;8.092;2023-02-19T04:23:06;99952.97;;;8.81;92.98
68859;BME280;55864;49.238;8.092;2023-02-19T04:25:07;99957.25;;;8.82;92.39
68859;BME280;55864;49.238;8.092;2023-02-19T04:27:09;99948.66;;;8.80;92.51
68859;BME280;55864;49.238;8.092;2023-02-19T04:29:10;99952.84;;;8.83;92.68
68859;BME280;55864;49.238;8.092;2023-02-19T04:31:11;99953.81;;;8.82;92.52
68859;BME280;55864;49.238;8.092;2023-02-19T04:33:11;99961.44;;;8.85;91.53
68859;BME280;55864;49.238;8.092;2023-02-19T04:35:12;99969.41;;;8.83;92.14
68859;BME280;55864;49.238;8.092;2023-02-19T04:37:12;99966.78;;;8.83;91.78
68859;BME280;55864;49.238;8.092;2023-02-19T04:39:13;99959.78;;;8.84;91.88
68859;BME280;55864;49.238;8.092;2023-02-19T04:41:13;99971.78;;;8.86;91.74
68859;BME280;55864;49.238;8.092;2023-02-19T04:43:16;99957.03;;;8.85;91.82
68859;BME280;55864;49.238;8.092;2023-02-19T04:45:16;99957.97;;;8.84;91.24
68859;BME280;55864;49.238;8.092;2023-02-19T04:47:17;99971.66;;;8.88;91.46
68859;BME280;55864;49.238;8.092;2023-02-19T04:49:17;99965.47;;;8.89;91.45
68859;BME280;55864;49.238;8.092;2023-02-19T04:51:18;99969.03;;;8.88;91.28
68859;BME280;55864;49.238;8.092;2023-02-19T04:53:18;99966.41;;;8.88;91.57
68859;BME280;55864;49.238;8.092;2023-02-19T04:55:19;99961.31;;;8.86;91.58
68859;BME280;55864;49.238;8.092;2023-02-19T04:57:20;99963.31;;;8.83;91.74
68859;BME280;55864;49.238;8.092;2023-02-19T04:59:21;99957.97;;;8.84;90.78
68859;BME280;55864;49.238;8.092;2023-02-19T05:01:22;99956.31;;;8.83;91.69
68859;BME280;55864;49.238;8.092;2023-02-19T05:03:23;99957.16;;;8.84;91.55
68859;BME280;55864;49.238;8.092;2023-02-19T05:05:24;99957.97;;;8.84;91.57
68859;BME280;55864;49.238;8.092;2023-02-19T05:07:24;99962.41;;;8.84;92.30
68859;BME280;55864;49.238;8.092;2023-02-19T05:09:25;99971.06;;;8.84;91.40
68859;BME280;55864;49.238;8.092;2023-02-19T05:11:26;99968.56;;;8.83;92.33
68859;BME280;55864;49.238;8.092;2023-02-19T05:13:26;99976.56;;;8.81;91.79
68859;BME280;55864;49.238;8.092;2023-02-19T05:15:29;99971.31;;;8.81;92.00
68859;BME280;55864;49.238;8.092;2023-02-19T05:17:31;99973.09;;;8.81;91.35
68859;BME280;55864;49.238;8.092;2023-02-19T05:19:32;99970.47;;;8.81;91.75
68859;BME280;55864;49.238;8.092;2023-02-19T05:21:33;99971.06;;;8.84;91.18
68859;BME280;55864;49.238;8.092;2023-02-19T05:23:33;99971.91;;;8.85;91.55
68859;BME280;55864;49.238;8.092;2023-02-19T05:25:34;99967.50;;;8.85;91.24
68859;BME280;55864;49.238;8.092;2023-02-19T05:27:34;99964.03;;;8.85;91.06
68859;BME280;55864;49.238;8.092;2023-02-19T05:29:35;99970.13;;;8.85;90.89
68859;BME280;55864;49.238;8.092;2023-02-19T05:31:37;99980.34;;;8.88;90.76
68859;BME280;55864;49.238;8.092;2023-02-19T05:33:37;99983.81;;;8.89;90.21
68859;BME280;55864;49.238;8.092;2023-02-19T05:35:42;99980.22;;;8.90;89.60
68859;BME280;55864;49.238;8.092;2023-02-19T05:37:42;99976.66;;;8.91;89.38
68859;BME280;55864;49.238;8.092;2023-02-19T05:39:43;99985.25;;;8.93;89.33
68859;BME280;55864;49.238;8.092;2023-02-19T05:41:44;99986.91;;;8.94;89.77
68859;BME280;55864;49.238;8.092;2023-02-19T05:43:46;99993.22;;;8.91;89.63
68859;BME280;55864;49.238;8.092;2023-02-19T05:45:47;99986.19;;;8.92;89.80
68859;BME280;55864;49.238;8.092;2023-02-19T05:47:49;99998.47;;;8.91;90.05
68859;BME280;55864;49.238;8.092;2023-02-19T05:49:50;99987.88;;;8.93;88.75
68859;BME280;55864;49.238;8.092;2023-02-19T05:51:50;99994.03;;;8.92;88.76
68859;BME280;55864;49.238;8.092;2023-02-19T05:53:51;99989.66;;;8.92;88.63
68859;BME280;55864;49.238;8.092;2023-02-19T05:55:52;99997.50;;;8.92;88.88
68859;BME280;55864;49.238;8.092;2023-02-19T05:57:52;100005.50;;;8.91;89.14
68859;BME280;55864;49.238;8.092;2023-02-19T05:59:53;99999.28;;;8.92;89.98
68859;BME280;55864;49.238;8.092;2023-02-19T06:01:54;100011.44;;;8.93;90.03
68859;BME280;55864;49.238;8.092;2023-02-19T06:06:12;100016.69;;;8.93;89.18
68859;BME280;55864;49.238;8.092;2023-02-19T06:08:14;100014.78;;;8.95;89.16
68859;BME280;55864;49.238;8.092;2023-02-19T06:10:15;100018.13;;;8.97;90.00
68859;BME280;55864;49.238;8.092;2023-02-19T06:12:16;100026.06;;;8.95;89.14
68859;BME280;55864;49.238;8.092;2023-02-19T06:14:17;100026.91;;;8.96;89.97
68859;BME280;55864;49.238;8.092;2023-02-19T06:18:33;100018.22;;;8.95;89.71
68859;BME280;55864;49.238;8.092;2023-02-19T06:20:35;100027.50;;;8.99;90.09
68859;BME280;55864;49.238;8.092;2023-02-19T06:22:36;100024.91;;;8.99;89.94
68859;BME280;55864;49.238;8.092;2023-02-19T06:24:36;100035.50;;;8.98;89.87
68859;BME280;55864;49.238;8.092;2023-02-19T06:26:37;100030.72;;;8.92;89.71
68859;BME280;55864;49.238;8.092;2023-02-19T06:28:39;100026.56;;;8.89;89.76
68859;BME280;55864;49.238;8.092;2023-02-19T06:30:40;100034.66;;;8.86;90.48
68859;BME280;55864;49.238;8.092;2023-02-19T06:32:40;100039.16;;;8.84;89.25
68859;BME280;55864;49.238;8.092;2023-02-19T06:34:41;100044.66;;;8.81;90.13
68859;BME280;55864;49.238;8.092;2023-02-19T06:36:43;100050.09;;;8.78;90.12
68859;BME280;55864;49.238;8.092;2023-02-19T06:38:44;100061.56;;;8.77;90.34
68859;BME280;55864;49.238;8.092;2023-02-19T06:40:44;100058.94;;;8.77;91.05
68859;BME280;55864;49.238;8.092;2023-02-19T06:42:45;100071.91;;;8.79;91.31
68859;BME280;55864;49.238;8.092;2023-02-19T06:44:46;100069.16;;;8.80;91.09
68859;BME280;55864;49.238;8.092;2023-02-19T06:46:49;100071.44;;;8.85;91.63
68859;BME280;55864;49.238;8.092;2023-02-19T06:48:50;100070.28;;;8.89;93.72
68859;BME280;55864;49.238;8.092;2023-02-19T06:50:50;100067.66;;;8.89;92.82
68859;BME280;55864;49.238;8.092;2023-02-19T06:52:52;100080.63;;;8.90;92.35
68859;BME280;55864;49.238;8.092;2023-02-19T06:54:53;100095.50;;;8.90;91.09
68859;BME280;55864;49.238;8.092;2023-02-19T06:56:53;100098.25;;;8.88;90.34
68859;BME280;55864;49.238;8.092;2023-02-19T06:58:55;100099.41;;;8.84;90.81
68859;BME280;55864;49.238;8.092;2023-02-19T07:00:56;100109.09;;;8.84;90.63
68859;BME280;55864;49.238;8.092;2023-02-19T07:02:57;100116.09;;;8.83;90.71
68859;BME280;55864;49.238;8.092;2023-02-19T07:04:57;100115.25;;;8.83;90.66
68859;BME280;55864;49.238;8.092;2023-02-19T07:06:58;100105.75;;;8.82;90.55
68859;BME280;55864;49.238;8.092;2023-02-19T07:09:01;100111.91;;;8.81;90.85
68859;BME280;55864;49.238;8.092;2023-02-19T07:11:02;100112.88;;;8.80;90.68
68859;BME280;55864;49.238;8.092;2023-02-19T07:13:03;100111.31;;;8.77;90.74
68859;BME280;55864;49.238;8.092;2023-02-19T07:15:04;100112.97;;;8.78;90.16
68859;BME280;55864;49.238;8.092;2023-02-19T07:17:04;100121.19;;;8.74;91.13
68859;BME280;55864;49.238;8.092;2023-02-19T07:19:05;100127.34;;;8.73;91.25
68859;BME280;55864;49.238;8.092;2023-02-19T07:21:07;100119.50;;;8.73;90.57
68859;BME280;55864;49.238;8.092;2023-02-19T07:23:08;100123.81;;;8.74;91.06
68859;BME280;55864;49.238;8.092;2023-02-19T07:25:10;100126.44;;;8.74;90.29
68859;BME280;55864;49.238;8.092;2023-02-19T07:27:11;100128.09;;;8.75;90.07
68859;BME280;55864;49.238;8.092;2023-02-19T07:29:12;100125.38;;;8.76;89.59
68859;BME280;55864;49.238;8.092;2023-02-19T07:31:17;100131.44;;;8.77;89.34
68859;BME280;55864;49.238;8.092;2023-02-19T07:33:18;100135.00;;;8.76;89.84
68859;BME280;55864;49.238;8.092;2023-02-19T07:35:19;100135.00;;;8.76;89.64
68859;BME280;55864;49.238;8.092;2023-02-19T07:37:23;100140.25;;;8.76;89.70
68859;BME280;55864;49.238;8.092;2023-02-19T07:39:24;100131.78;;;8.72;89.12
68859;BME280;55864;49.238;8.092;2023-02-19T07:41:26;100138.47;;;8.76;89.21
68859;BME280;55864;49.238;8.092;2023-02-19T07:43:31;100146.22;;;8.78;88.72
68859;BME280;55864;49.238;8.092;2023-02-19T07:45:32;100151.44;;;8.78;88.37
68859;BME280;55864;49.238;8.092;2023-02-19T07:47:33;100159.31;;;8.78;88.90
68859;BME280;55864;49.238;8.092;2023-02-19T07:49:33;100171.44;;;8.79;87.98
68859;BME280;55864;49.238;8.092;2023-02-19T07:51:35;100173.13;;;8.80;88.51
68859;BME280;55864;49.238;8.092;2023-02-19T07:53:36;100177.53;;;8.79;87.77
68859;BME280;55864;49.238;8.092;2023-02-19T07:55:37;100175.84;;;8.78;88.96
68859;BME280;55864;49.238;8.092;2023-02-19T07:57:39;100181.91;;;8.79;89.17
68859;BME280;55864;49.238;8.092;2023-02-19T07:59:40;100172.28;;;8.79;88.41
68859;BME280;55864;49.238;8.092;2023-02-19T08:01:40;100176.47;;;8.82;88.02
68859;BME280;55864;49.238;8.092;2023-02-19T08:03:42;100175.50;;;8.83;88.34
68859;BME280;55864;49.238;8.092;2023-02-19T08:05:42;100175.97;;;8.77;87.93
68859;BME280;55864;49.238;8.092;2023-02-19T08:07:43;100181.06;;;8.78;87.96
68859;BME280;55864;49.238;8.092;2023-02-19T08:09:44;100183.69;;;8.78;88.50
68859;BME280;55864;49.238;8.092;2023-02-19T08:11:45;100191.66;;;8.77;87.77
68859;BME280;55864;49.238;8.092;2023-02-19T08:13:48;100188.94;;;8.78;88.28
68859;BME280;55864;49.238;8.092;2023-02-19T08:15:51;100201.81;;;8.81;87.96
68859;BME280;55864;49.238;8.092;2023-02-19T08:17:52;100192.41;;;8.79;88.48
68859;BME280;55864;49.238;8.092;2023-02-19T08:19:52;100197.75;;;8.77;88.25
68859;BME280;55864;49.238;8.092;2023-02-19T08:21:53;100195.13;;;8.77;88.22
68859;BME280;55864;49.238;8.092;2023-02-19T08:23:53;100200.25;;;8.79;88.02
68859;BME280;55864;49.238;8.092;2023-02-19T08:25:56;100197.63;;;8.79;87.96
68859;BME280;55864;49.238;8.092;2023-02-19T08:27:58;100202.03;;;8.78;87.28
68859;BME280;55864;49.238;8.092;2023-02-19T08:30:00;100205.38;;;8.80;87.55
68859;BME280;55864;49.238;8.092;2023-02-19T08:32:01;100198.59;;;8.78;87.53
68859;BME280;55864;49.238;8.092;2023-02-19T08:34:01;100203.00;;;8.77;87.96
68859;BME280;55864;49.238;8.092;2023-02-19T08:36:03;100200.50;;;8.76;87.66
68859;BME280;55864;49.238;8.092;2023-02-19T08:38:05;100200.38;;;8.77;88.13
68859;BME280;55864;49.238;8.092;2023-02-19T08:40:06;100194.41;;;8.75;87.92
68859;BME280;55864;49.238;8.092;2023-02-19T08:42:07;100206.47;;;8.78;88.42
68859;BME280;55864;49.238;8.092;2023-02-19T08:44:08;100212.50;;;8.78;88.34
68859;BME280;55864;49.238;8.092;2023-02-19T08:46:10;100210.72;;;8.79;88.67
68859;BME280;55864;49.238;8.092;2023-02-19T08:48:11;100213.34;;;8.79;89.13
68859;BME280;55864;49.238;8.092;2023-02-19T08:50:12;100216.94;;;8.78;88.58
68859;BME280;55864;49.238;8.092;2023-02-19T08:52:12;100225.72;;;8.77;88.74
68859;BME280;55864;49.238;8.092;2023-02-19T08:54:13;100223.81;;;8.79;88.94
68859;BME280;55864;49.238;8.092;2023-02-19T08:56:15;100223.81;;;8.79;89.36
68859;BME280;55864;49.238;8.092;2023-02-19T08:58:16;100229.06;;;8.79;88.83
68859;BME280;55864;49.238;8.092;2023-02-19T09:00:17;100227.06;;;8.82;89.91
68859;BME280;55864;49.238;8.092;2023-02-19T09:02:19;100233.25;;;8.81;89.49
68859;BME280;55864;49.238;8.092;2023-02-19T09:04:20;100241.84;;;8.83;89.75
68859;BME280;55864;49.238;8.092;2023-02-19T09:06:21;100247.09;;;8.83;89.56
68859;BME280;55864;49.238;8.092;2023-02-19T09:08:22;100245.31;;;8.84;88.92
68859;BME280;55864;49.238;8.092;2023-02-19T09:10:23;100245.38;;;8.82;88.90
68859;BME280;55864;49.238;8.092;2023-02-19T09:12:24;100251.47;;;8.83;88.88
68859;BME280;55864;49.238;8.092;2023-02-19T09:14:25;100249.81;;;8.82;89.25
68859;BME280;55864;49.238;8.092;2023-02-19T09:16:29;100245.50;;;8.81;89.15
68859;BME280;55864;49.238;8.092;2023-02-19T09:18:34;100250.03;;;8.79;89.92
68859;BME280;55864;49.238;8.092;2023-02-19T09:20:34;100250.13;;;8.77;89.22
68859;BME280;55864;49.238;8.092;2023-02-19T09:22:35;100251.72;;;8.80;89.55
68859;BME280;55864;49.238;8.092;2023-02-19T09:24:36;100252.66;;;8.79;90.09
68859;BME280;55864;49.238;8.092;2023-02-19T09:26:37;100253.38;;;8.81;89.35
68859;BME280;55864;49.238;8.092;2023-02-19T09:28:38;100263.66;;;8.84;89.95
68859;BME280;55864;49.238;8.092;2023-02-19T09:30:39;100266.97;;;8.86;89.90
68859;BME280;55864;49.238;8.092;2023-02-19T09:32:39;100273.03;;;8.86;90.24
68859;BME280;55864;49.238;8.092;2023-02-19T09:34:41;100273.88;;;8.87;89.17
68859;BME280;55864;49.238;8.092;2023-02-19T09:36:42;100277.44;;;8.86;89.70
68859;BME280;55864;49.238;8.092;2023-02-19T09:38:42;100261.09;;;8.82;89.50
68859;BME280;55864;49.238;8.092;2023-02-19T09:40:43;100270.66;;;8.83;90.06
68859;BME280;55864;49.238;8.092;2023-02-19T09:42:43;100270.53;;;8.85;89.61
68859;BME280;55864;49.238;8.092;2023-02-19T09:44:47;100284.59;;;8.84;89.97
68859;BME280;55864;49.238;8.092;2023-02-19T09:46:50;100285.53;;;8.83;90.15
68859;BME280;55864;49.238;8.092;2023-02-19T09:48:52;100289.84;;;8.84;90.70
68859;BME280;55864;49.238;8.092;2023-02-19T09:50:58;100277.56;;;8.84;90.81
68859;BME280;55864;49.238;8.092;2023-02-19T09:53:02;100270.78;;;8.82;90.88
68859;BME280;55864;49.238;8.092;2023-02-19T09:55:12;100276.00;;;8.82;90.92
68859;BME280;55864;49.238;8.092;2023-02-19T09:57:16;100274.22;;;8.82;91.32
68859;BME280;55864;49.238;8.092;2023-02-19T09:59:20;100288.88;;;8.85;91.90
68859;BME280;55864;49.238;8.092;2023-02-19T10:01:23;100293.16;;;8.86;92.18
68859;BME280;55864;49.238;8.092;2023-02-19T10:03:27;100302.59;;;8.88;91.08
68859;BME280;55864;49.238;8.092;2023-02-19T10:05:29;100299.75;;;8.91;90.79
68859;BME280;55864;49.238;8.092;2023-02-19T10:07:38;100290.09;;;8.92;91.41
68859;BME280;55864;49.238;8.092;2023-02-19T10:09:39;100304.78;;;8.94;91.32
68859;BME280;55864;49.238;8.092;2023-02-19T10:11:40;100296.91;;;8.94;90.64
68859;BME280;55864;49.238;8.092;2023-02-19T10:13:44;100313.25;;;8.98;91.62
68859;BME280;55864;49.238;8.092;2023-02-19T10:15:50;100316.59;;;9.00;91.96
68859;BME280;55864;49.238;8.092;2023-02-19T10:17:52;100320.16;;;8.99;91.30
68859;BME280;55864;49.238;8.092;2023-02-19T10:19:52;100324.44;;;9.00;91.13
68859;BME280;55864;49.238;8.092;2023-02-19T10:21:53;100319.31;;;8.98;91.49
68859;BME280;55864;49.238;8.092;2023-02-19T10:23:59;100313.25;;;8.98;91.85
68859;BME280;55864;49.238;8.092;2023-02-19T10:26:01;100313.25;;;8.98;91.27
68859;BME280;55864;49.238;8.092;2023-02-19T10:28:01;100318.47;;;8.98;91.79
68859;BME280;55864;49.238;8.092;2023-02-19T10:30:04;100326.47;;;8.96;91.33
68859;BME280;55864;49.238;8.092;2023-02-19T10:32:13;100316.91;;;8.95;91.59
68859;BME280;55864;49.238;8.092;2023-02-19T10:34:17;100324.03;;;8.93;92.15
68859;BME280;55864;49.238;8.092;2023-02-19T10:36:25;100332.03;;;8.92;91.34
68859;BME280;55864;49.238;8.092;2023-02-19T10:38:31;100328.78;;;8.88;92.00
68859;BME280;55864;49.238;8.092;2023-02-19T10:40:34;100329.03;;;8.85;92.02
68859;BME280;55864;49.238;8.092;2023-02-19T10:42:44;100326.41;;;8.85;92.13
68859;BME280;55864;49.238;8.092;2023-02-19T10:44:46;100330.06;;;8.83;91.99
68859;BME280;55864;49.238;8.092;2023-02-19T10:46:52;100321.47;;;8.81;91.80
68859;BME280;55864;49.238;8.092;2023-02-19T10:48:57;100318.97;;;8.79;92.00
68859;BME280;55864;49.238;8.092;2023-02-19T10:51:03;100320.03;;;8.77;92.70
68859;BME280;55864;49.238;8.092;2023-02-19T10:53:04;100319.91;;;8.78;92.22
68859;BME280;55864;49.238;8.092;2023-02-19T10:55:19;100332.81;;;8.81;92.42
68859;BME280;55864;49.238;8.092;2023-02-19T10:57:27;100331.09;;;8.80;92.20
68859;BME280;55864;49.238;8.092;2023-02-19T10:59:31;100321.47;;;8.81;92.24
68859;BME280;55864;49.238;8.092;2023-02-19T11:01:31;100325.06;;;8.80;92.06